sensor_id;sensor_type;location;lat;lon;timestamp;P1;durP1;ratioP1;P2;durP2;ratioP2
48795;SDS011;34607;48.520;-1.330;2023-01-05T08:55:01;19.02;;;4.00;;
48795;SDS011;34607;48.520;-1.330;2023-01-05T08:57:30;17.17;;;4.78;;
48795;SDS011;34607;48.520;-1.330;2023-01-05T08:59:57;16.15;;;4.55;;
48795;SDS011;34607;48.520;-1.330;2023-01-05T09:02:24;19.65;;;4.53;;
48795;SDS011;34607;48.520;-1.330;2023-01-05T09:04:51;17.83;;;3.30;;
48795;SDS011;34607;48.520;-1.330;2023-01-05T09:07:18;17.10;;;3.22;;
48795;SDS011;34607;48.520;-1.330;2023-01-05T09:09:46;14.82;;;3.33;;
48795;SDS011;34607;48.520;-1.330;2023-01-05T09:12:15;19.15;;;4.65;;
48795;SDS011;34607;48.520;-1.330;2023-01-05T09:14:42;16.38;;;3.75;;
48795;SDS011;34607;48.520;-1.330;2023-01-05T09:17:09;22.83;;;4.35;;
48795;SDS011;34607;48.520;-1.330;2023-01-05T09:19:36;18.08;;;4.07;;
48795;SDS011;34607;48.520;-1.330;2023-01-05T09:22:03;21.17;;;4.57;;
48795;SDS011;34607;48.520;-1.330;2023-01-05T09:24:30;14.40;;;3.22;;
48795;SDS011;34607;48.520;-1.330;2023-01-05T09:26:58;20.17;;;3.88;;
48795;SDS011;34607;48.520;-1.330;2023-01-05T09:29:26;20.42;;;3.40;;
48795;SDS011;34607;48.520;-1.330;2023-01-05T09:31:53;14.45;;;3.30;;
48795;SDS011;34607;48.520;-1.330;2023-01-05T09:34:20;17.20;;;4.20;;
48795;SDS011;34607;48.520;-1.330;2023-01-05T09:36:47;16.60;;;3.28;;
48795;SDS011;34607;48.520;-1.330;2023-01-05T09:39:14;15.50;;;3.88;;
48795;SDS011;34607;48.520;-1.330;2023-01-05T09:41:42;17.55;;;3.45;;
48795;SDS011;34607;48.520;-1.330;2023-01-05T09:44:13;19.25;;;3.25;;
48795;SDS011;34607;48.520;-1.330;2023-01-05T09:46:52;13.50;;;3.05;;
48795;SDS011;34607;48.520;-1.330;2023-01-05T09:49:23;14.75;;;2.63;;
48795;SDS011;34607;48.520;-1.330;2023-01-05T09:51:53;13.68;;;2.65;;
48795;SDS011;34607;48.520;-1.330;2023-01-05T09:54:26;11.85;;;2.53;;
48795;SDS011;34607;48.520;-1.330;2023-01-05T09:56:55;17.70;;;3.40;;
48795;SDS011;34607;48.520;-1.330;2023-01-05T09:59:25;12.50;;;3.38;;
48795;SDS011;34607;48.520;-1.330;2023-01-05T10:01:59;13.23;;;3.03;;
48795;SDS011;34607;48.520;-1.330;2023-01-05T10:04:30;12.75;;;3.42;;
48795;SDS011;34607;48.520;-1.330;2023-01-05T10:07:00;13.52;;;3.10;;
48795;SDS011;34607;48.520;-1.330;2023-01-05T10:09:31;12.40;;;3.00;;
48795;SDS011;34607;48.520;-1.330;2023-01-05T10:12:04;14.32;;;3.38;;
48795;SDS011;34607;48.520;-1.330;2023-01-05T10:14:56;12.65;;;2.88;;
48795;SDS011;34607;48.520;-1.330;2023-01-05T10:17:31;12.93;;;2.65;;
48795;SDS011;34607;48.520;-1.330;2023-01-05T10:20:00;13.15;;;3.25;;
48795;SDS011;34607;48.520;-1.330;2023-01-05T10:22:30;15.40;;;3.30;;
48795;SDS011;34607;48.520;-1.330;2023-01-05T10:25:08;11.43;;;2.90;;
48795;SDS011;34607;48.520;-1.330;2023-01-05T10:27:45;18.23;;;3.13;;
48795;SDS011;34607;48.520;-1.330;2023-01-05T10:30:19;12.48;;;2.85;;
48795;SDS011;34607;48.520;-1.330;2023-01-05T10:32:54;11.20;;;3.20;;
48795;SDS011;34607;48.520;-1.330;2023-01-05T10:38:21;13.75;;;3.45;;
48795;SDS011;34607;48.520;-1.330;2023-01-05T10:41:01;11.60;;;2.75;;
48795;SDS011;34607;48.520;-1.330;2023-01-05T10:43:38;12.25;;;2.80;;
48795;SDS011;34607;48.520;-1.330;2023-01-05T10:46:21;13.25;;;3.38;;
48795;SDS011;34607;48.520;-1.330;2023-01-05T10:48:49;13.10;;;2.60;;
48795;SDS011;34607;48.520;-1.330;2023-01-05T10:51:17;10.93;;;2.70;;
48795;SDS011;34607;48.520;-1.330;2023-01-05T10:53:44;12.65;;;3.42;;
48795;SDS011;34607;48.520;-1.330;2023-01-05T10:56:12;10.55;;;2.97;;
48795;SDS011;34607;48.520;-1.330;2023-01-05T10:58:40;16.55;;;3.20;;
48795;SDS011;34607;48.520;-1.330;2023-01-05T11:01:18;16.33;;;3.50;;
48795;SDS011;34607;48.520;-1.330;2023-01-05T11:03:52;9.90;;;2.58;;
48795;SDS011;34607;48.520;-1.330;2023-01-05T11:06:23;13.80;;;3.00;;
48795;SDS011;34607;48.520;-1.330;2023-01-05T11:08:53;13.05;;;2.80;;
48795;SDS011;34607;48.520;-1.330;2023-01-05T11:11:21;13.77;;;3.72;;
48795;SDS011;34607;48.520;-1.330;2023-01-05T11:13:51;12.88;;;3.22;;
48795;SDS011;34607;48.520;-1.330;2023-01-05T11:16:22;15.57;;;3.40;;
48795;SDS011;34607;48.520;-1.330;2023-01-05T11:18:53;15.45;;;2.90;;
48795;SDS011;34607;48.520;-1.330;2023-01-05T11:21:23;11.95;;;3.05;;
48795;SDS011;34607;48.520;-1.330;2023-01-05T11:23:53;9.85;;;2.38;;
48795;SDS011;34607;48.520;-1.330;2023-01-05T11:26:23;10.23;;;3.38;;
48795;SDS011;34607;48.520;-1.330;2023-01-05T11:29:02;13.63;;;3.20;;
48795;SDS011;34607;48.520;-1.330;2023-01-05T11:31:36;11.13;;;2.75;;
48795;SDS011;34607;48.520;-1.330;2023-01-05T11:34:12;8.88;;;2.10;;
48795;SDS011;34607;48.520;-1.330;2023-01-05T11:36:50;16.50;;;3.38;;
48795;SDS011;34607;48.520;-1.330;2023-01-05T11:39:21;11.65;;;2.90;;
48795;SDS011;34607;48.520;-1.330;2023-01-05T11:44:45;11.70;;;3.03;;
48795;SDS011;34607;48.520;-1.330;2023-01-05T11:50:04;11.88;;;2.97;;
48795;SDS011;34607;48.520;-1.330;2023-01-05T11:52:41;16.30;;;3.10;;
48795;SDS011;34607;48.520;-1.330;2023-01-05T11:55:26;11.60;;;2.75;;
48795;SDS011;34607;48.520;-1.330;2023-01-05T12:00:49;11.90;;;2.35;;
48795;SDS011;34607;48.520;-1.330;2023-01-05T12:03:28;9.93;;;2.53;;
48795;SDS011;34607;48.520;-1.330;2023-01-05T12:06:11;16.50;;;4.00;;
48795;SDS011;34607;48.520;-1.330;2023-01-05T12:08:54;14.38;;;3.10;;
48795;SDS011;34607;48.520;-1.330;2023-01-05T12:11:26;12.35;;;2.95;;
48795;SDS011;34607;48.520;-1.330;2023-01-05T12:14:04;11.38;;;2.97;;
48795;SDS011;34607;48.520;-1.330;2023-01-05T12:16:51;11.15;;;2.88;;
48795;SDS011;34607;48.520;-1.330;2023-01-05T12:19:27;21.13;;;4.13;;
48795;SDS011;34607;48.520;-1.330;2023-01-05T12:22:26;18.02;;;3.92;;
48795;SDS011;34607;48.520;-1.330;2023-01-05T12:25:07;12.60;;;3.45;;
48795;SDS011;34607;48.520;-1.330;2023-01-05T12:30:36;24.80;;;3.77;;
48795;SDS011;34607;48.520;-1.330;2023-01-05T12:33:13;11.50;;;3.63;;
48795;SDS011;34607;48.520;-1.330;2023-01-05T12:38:36;13.68;;;3.55;;
48795;SDS011;34607;48.520;-1.330;2023-01-05T12:41:22;11.57;;;2.90;;
48795;SDS011;34607;48.520;-1.330;2023-01-05T12:47:16;12.82;;;2.67;;
48795;SDS011;34607;48.520;-1.330;2023-01-05T12:49:56;8.48;;;2.40;;
48795;SDS011;34607;48.520;-1.330;2023-01-05T12:52:29;16.60;;;2.57;;
48795;SDS011;34607;48.520;-1.330;2023-01-05T12:55:03;12.30;;;2.80;;
48795;SDS011;34607;48.520;-1.330;2023-01-05T12:57:39;12.55;;;2.65;;
48795;SDS011;34607;48.520;-1.330;2023-01-05T13:00:10;10.65;;;2.35;;
48795;SDS011;34607;48.520;-1.330;2023-01-05T13:02:41;5.32;;;1.90;;
48795;SDS011;34607;48.520;-1.330;2023-01-05T13:05:16;8.52;;;2.08;;
48795;SDS011;34607;48.520;-1.330;2023-01-05T13:07:48;11.98;;;2.08;;
48795;SDS011;34607;48.520;-1.330;2023-01-05T13:10:21;12.18;;;2.55;;
48795;SDS011;34607;48.520;-1.330;2023-01-05T13:12:55;8.88;;;2.63;;
48795;SDS011;34607;48.520;-1.330;2023-01-05T13:15:25;9.15;;;3.33;;
48795;SDS011;34607;48.520;-1.330;2023-01-05T13:17:58;10.10;;;2.75;;
48795;SDS011;34607;48.520;-1.330;2023-01-05T13:20:34;13.10;;;2.40;;
48795;SDS011;34607;48.520;-1.330;2023-01-05T13:23:10;10.32;;;2.35;;
48795;SDS011;34607;48.520;-1.330;2023-01-05T13:25:46;6.88;;;2.38;;
48795;SDS011;34607;48.520;-1.330;2023-01-05T13:28:17;11.75;;;2.58;;
48795;SDS011;34607;48.520;-1.330;2023-01-05T13:30:49;11.63;;;2.63;;
48795;SDS011;34607;48.520;-1.330;2023-01-05T13:33:31;8.93;;;2.20;;
48795;SDS011;34607;48.520;-1.330;2023-01-05T13:36:12;11.65;;;2.40;;
48795;SDS011;34607;48.520;-1.330;2023-01-05T13:42:01;11.70;;;2.55;;
48795;SDS011;34607;48.520;-1.330;2023-01-05T13:47:44;8.80;;;2.43;;
48795;SDS011;34607;48.520;-1.330;2023-01-05T13:53:21;7.35;;;2.30;;
48795;SDS011;34607;48.520;-1.330;2023-01-05T13:55:52;9.20;;;2.65;;
48795;SDS011;34607;48.520;-1.330;2023-01-05T13:58:37;10.00;;;2.80;;
48795;SDS011;34607;48.520;-1.330;2023-01-05T14:01:07;8.48;;;2.75;;
48795;SDS011;34607;48.520;-1.330;2023-01-05T14:03:37;14.85;;;2.50;;
48795;SDS011;34607;48.520;-1.330;2023-01-05T14:06:07;8.77;;;2.08;;
48795;SDS011;34607;48.520;-1.330;2023-01-05T14:08:45;7.55;;;2.20;;
48795;SDS011;34607;48.520;-1.330;2023-01-05T14:11:16;8.90;;;2.70;;
48795;SDS011;34607;48.520;-1.330;2023-01-05T14:13:50;7.78;;;1.90;;
48795;SDS011;34607;48.520;-1.330;2023-01-05T14:19:12;7.13;;;2.20;;
48795;SDS011;34607;48.520;-1.330;2023-01-05T14:21:57;6.55;;;2.03;;
48795;SDS011;34607;48.520;-1.330;2023-01-05T14:24:26;8.13;;;1.60;;
48795;SDS011;34607;48.520;-1.330;2023-01-05T14:27:03;6.45;;;1.80;;
48795;SDS011;34607;48.520;-1.330;2023-01-05T14:32:30;7.45;;;2.22;;
48795;SDS011;34607;48.520;-1.330;2023-01-05T14:34:59;13.05;;;2.50;;
48795;SDS011;34607;48.520;-1.330;2023-01-05T14:37:33;6.85;;;1.73;;
48795;SDS011;34607;48.520;-1.330;2023-01-05T14:40:12;8.13;;;2.75;;
48795;SDS011;34607;48.520;-1.330;2023-01-05T14:42:46;12.43;;;2.23;;
48795;SDS011;34607;48.520;-1.330;2023-01-05T14:45:21;7.38;;;2.03;;
48795;SDS011;34607;48.520;-1.330;2023-01-05T14:47:52;9.85;;;2.10;;
48795;SDS011;34607;48.520;-1.330;2023-01-05T14:50:26;9.88;;;2.33;;
48795;SDS011;34607;48.520;-1.330;2023-01-05T14:55:24;15.93;;;3.08;;
48795;SDS011;34607;48.520;-1.330;2023-01-05T14:57:53;10.75;;;2.45;;
48795;SDS011;34607;48.520;-1.330;2023-01-05T15:00:28;7.47;;;2.40;;
48795;SDS011;34607;48.520;-1.330;2023-01-05T15:03:18;5.90;;;1.98;;
48795;SDS011;34607;48.520;-1.330;2023-01-05T15:05:54;8.02;;;2.10;;
48795;SDS011;34607;48.520;-1.330;2023-01-05T15:08:29;7.68;;;1.95;;
48795;SDS011;34607;48.520;-1.330;2023-01-05T15:11:19;9.20;;;2.20;;
48795;SDS011;34607;48.520;-1.330;2023-01-05T15:14:03;7.70;;;1.88;;
48795;SDS011;34607;48.520;-1.330;2023-01-05T15:17:08;8.43;;;2.17;;
48795;SDS011;34607;48.520;-1.330;2023-01-05T15:20:05;6.03;;;2.00;;
48795;SDS011;34607;48.520;-1.330;2023-01-05T15:22:52;8.55;;;2.33;;
48795;SDS011;34607;48.520;-1.330;2023-01-05T15:28:38;10.95;;;2.20;;
48795;SDS011;34607;48.520;-1.330;2023-01-05T15:31:29;6.45;;;2.10;;
48795;SDS011;34607;48.520;-1.330;2023-01-05T15:34:09;11.65;;;3.08;;
48795;SDS011;34607;48.520;-1.330;2023-01-05T15:36:42;6.68;;;2.20;;
48795;SDS011;34607;48.520;-1.330;2023-01-05T15:39:24;10.23;;;2.20;;
48795;SDS011;34607;48.520;-1.330;2023-01-05T15:41:52;10.65;;;2.58;;
48795;SDS011;34607;48.520;-1.330;2023-01-05T15:44:25;6.32;;;2.38;;
48795;SDS011;34607;48.520;-1.330;2023-01-05T15:46:57;10.85;;;2.85;;
48795;SDS011;34607;48.520;-1.330;2023-01-05T15:49:28;7.47;;;2.63;;
48795;SDS011;34607;48.520;-1.330;2023-01-05T15:51:57;9.27;;;2.58;;
48795;SDS011;34607;48.520;-1.330;2023-01-05T15:54:25;6.38;;;2.80;;
48795;SDS011;34607;48.520;-1.330;2023-01-05T15:56:54;7.05;;;2.42;;
48795;SDS011;34607;48.520;-1.330;2023-01-05T15:59:27;6.32;;;2.15;;
48795;SDS011;34607;48.520;-1.330;2023-01-05T16:01:57;10.18;;;2.97;;
48795;SDS011;34607;48.520;-1.330;2023-01-05T16:04:24;6.38;;;1.80;;
48795;SDS011;34607;48.520;-1.330;2023-01-05T16:06:56;8.73;;;1.98;;
48795;SDS011;34607;48.520;-1.330;2023-01-05T16:09:25;9.98;;;2.33;;
48795;SDS011;34607;48.520;-1.330;2023-01-05T16:11:57;8.13;;;1.73;;
48795;SDS011;34607;48.520;-1.330;2023-01-05T16:14:30;7.43;;;1.77;;
48795;SDS011;34607;48.520;-1.330;2023-01-05T16:17:01;9.88;;;2.35;;
48795;SDS011;34607;48.520;-1.330;2023-01-05T16:19:32;6.90;;;2.00;;
48795;SDS011;34607;48.520;-1.330;2023-01-05T16:22:07;3.38;;;1.40;;
48795;SDS011;34607;48.520;-1.330;2023-01-05T16:24:41;8.55;;;2.25;;
48795;SDS011;34607;48.520;-1.330;2023-01-05T16:27:14;3.45;;;1.50;;
48795;SDS011;34607;48.520;-1.330;2023-01-05T16:29:43;5.57;;;2.90;;
48795;SDS011;34607;48.520;-1.330;2023-01-05T16:32:25;8.63;;;2.00;;
48795;SDS011;34607;48.520;-1.330;2023-01-05T16:38:05;10.43;;;2.30;;
48795;SDS011;34607;48.520;-1.330;2023-01-05T16:40:54;8.60;;;2.75;;
48795;SDS011;34607;48.520;-1.330;2023-01-05T16:43:33;5.70;;;2.00;;
48795;SDS011;34607;48.520;-1.330;2023-01-05T16:46:21;4.65;;;1.85;;
48795;SDS011;34607;48.520;-1.330;2023-01-05T16:49:02;4.82;;;2.42;;
48795;SDS011;34607;48.520;-1.330;2023-01-05T16:51:36;8.15;;;2.95;;
48795;SDS011;34607;48.520;-1.330;2023-01-05T16:54:09;7.30;;;2.22;;
48795;SDS011;34607;48.520;-1.330;2023-01-05T16:56:45;5.25;;;1.70;;
48795;SDS011;34607;48.520;-1.330;2023-01-05T16:59:31;8.10;;;2.10;;
48795;SDS011;34607;48.520;-1.330;2023-01-05T17:02:01;5.80;;;1.33;;
48795;SDS011;34607;48.520;-1.330;2023-01-05T17:04:28;5.88;;;1.70;;
48795;SDS011;34607;48.520;-1.330;2023-01-05T17:06:55;3.60;;;1.83;;
48795;SDS011;34607;48.520;-1.330;2023-01-05T17:09:25;5.57;;;1.92;;
48795;SDS011;34607;48.520;-1.330;2023-01-05T17:11:54;6.22;;;2.35;;
48795;SDS011;34607;48.520;-1.330;2023-01-05T17:14:22;8.60;;;2.13;;
48795;SDS011;34607;48.520;-1.330;2023-01-05T17:16:51;8.00;;;1.52;;
48795;SDS011;34607;48.520;-1.330;2023-01-05T17:19:19;6.50;;;1.92;;
48795;SDS011;34607;48.520;-1.330;2023-01-05T17:21:48;9.50;;;2.13;;
48795;SDS011;34607;48.520;-1.330;2023-01-05T17:24:19;6.38;;;1.63;;
48795;SDS011;34607;48.520;-1.330;2023-01-05T17:26:48;6.07;;;1.60;;
48795;SDS011;34607;48.520;-1.330;2023-01-05T17:29:16;4.40;;;1.42;;
48795;SDS011;34607;48.520;-1.330;2023-01-05T17:31:45;7.90;;;1.70;;
48795;SDS011;34607;48.520;-1.330;2023-01-05T17:34:12;7.43;;;1.35;;
48795;SDS011;34607;48.520;-1.330;2023-01-05T17:36:39;3.00;;;1.42;;
48795;SDS011;34607;48.520;-1.330;2023-01-05T17:39:08;4.88;;;1.23;;
48795;SDS011;34607;48.520;-1.330;2023-01-05T17:41:37;5.03;;;1.83;;
48795;SDS011;34607;48.520;-1.330;2023-01-05T17:44:06;5.22;;;1.98;;
48795;SDS011;34607;48.520;-1.330;2023-01-05T17:46:35;4.32;;;1.58;;
48795;SDS011;34607;48.520;-1.330;2023-01-05T17:49:03;3.45;;;1.50;;
48795;SDS011;34607;48.520;-1.330;2023-01-05T17:51:31;3.40;;;2.10;;
48795;SDS011;34607;48.520;-1.330;2023-01-05T17:53:58;5.22;;;1.75;;
48795;SDS011;34607;48.520;-1.330;2023-01-05T17:56:25;4.80;;;1.75;;
48795;SDS011;34607;48.520;-1.330;2023-01-05T17:58:52;5.82;;;1.67;;
48795;SDS011;34607;48.520;-1.330;2023-01-05T18:01:21;6.63;;;1.67;;
48795;SDS011;34607;48.520;-1.330;2023-01-05T18:03:48;3.58;;;1.23;;
48795;SDS011;34607;48.520;-1.330;2023-01-05T18:06:15;6.70;;;3.53;;
48795;SDS011;34607;48.520;-1.330;2023-01-05T18:08:42;5.05;;;1.77;;
48795;SDS011;34607;48.520;-1.330;2023-01-05T18:11:09;4.30;;;1.55;;
48795;SDS011;34607;48.520;-1.330;2023-01-05T18:13:36;2.63;;;1.30;;
48795;SDS011;34607;48.520;-1.330;2023-01-05T18:16:04;3.40;;;1.40;;
48795;SDS011;34607;48.520;-1.330;2023-01-05T18:18:34;1.77;;;1.50;;
48795;SDS011;34607;48.520;-1.330;2023-01-05T18:21:02;3.83;;;1.73;;
48795;SDS011;34607;48.520;-1.330;2023-01-05T18:23:30;2.55;;;1.15;;
48795;SDS011;34607;48.520;-1.330;2023-01-05T18:26:00;1.80;;;1.20;;
48795;SDS011;34607;48.520;-1.330;2023-01-05T18:28:27;4.50;;;1.35;;
48795;SDS011;34607;48.520;-1.330;2023-01-05T18:30:55;4.63;;;1.60;;
48795;SDS011;34607;48.520;-1.330;2023-01-05T18:33:22;3.75;;;1.77;;
48795;SDS011;34607;48.520;-1.330;2023-01-05T18:35:50;4.40;;;1.60;;
48795;SDS011;34607;48.520;-1.330;2023-01-05T18:38:17;4.30;;;1.52;;
48795;SDS011;34607;48.520;-1.330;2023-01-05T18:40:45;3.97;;;1.52;;
48795;SDS011;34607;48.520;-1.330;2023-01-05T18:43:14;5.28;;;1.80;;
48795;SDS011;34607;48.520;-1.330;2023-01-05T18:45:41;5.80;;;1.70;;
48795;SDS011;34607;48.520;-1.330;2023-01-05T18:48:08;4.93;;;1.50;;
48795;SDS011;34607;48.520;-1.330;2023-01-05T18:50:38;6.22;;;1.58;;
48795;SDS011;34607;48.520;-1.330;2023-01-05T18:53:09;4.20;;;1.48;;
48795;SDS011;34607;48.520;-1.330;2023-01-05T18:55:40;2.33;;;1.55;;
48795;SDS011;34607;48.520;-1.330;2023-01-05T18:58:07;4.22;;;1.60;;
48795;SDS011;34607;48.520;-1.330;2023-01-05T19:00:37;3.58;;;2.08;;
48795;SDS011;34607;48.520;-1.330;2023-01-05T19:03:04;5.90;;;1.58;;
48795;SDS011;34607;48.520;-1.330;2023-01-05T19:05:32;4.97;;;2.35;;
48795;SDS011;34607;48.520;-1.330;2023-01-05T19:07:59;3.05;;;1.73;;
48795;SDS011;34607;48.520;-1.330;2023-01-05T19:10:30;4.00;;;1.75;;
48795;SDS011;34607;48.520;-1.330;2023-01-05T19:12:57;6.45;;;2.20;;
48795;SDS011;34607;48.520;-1.330;2023-01-05T19:15:24;2.78;;;1.55;;
48795;SDS011;34607;48.520;-1.330;2023-01-05T19:17:51;3.85;;;1.65;;
48795;SDS011;34607;48.520;-1.330;2023-01-05T19:20:18;6.32;;;2.08;;
48795;SDS011;34607;48.520;-1.330;2023-01-05T19:22:46;2.60;;;1.70;;
48795;SDS011;34607;48.520;-1.330;2023-01-05T19:25:13;4.30;;;2.67;;
48795;SDS011;34607;48.520;-1.330;2023-01-05T19:27:43;6.32;;;2.53;;
48795;SDS011;34607;48.520;-1.330;2023-01-05T19:30:10;4.68;;;2.40;;
48795;SDS011;34607;48.520;-1.330;2023-01-05T19:32:38;2.75;;;2.03;;
48795;SDS011;34607;48.520;-1.330;2023-01-05T19:35:06;4.40;;;2.00;;
48795;SDS011;34607;48.520;-1.330;2023-01-05T19:37:33;2.75;;;1.63;;
48795;SDS011;34607;48.520;-1.330;2023-01-05T19:40:02;4.75;;;2.22;;
48795;SDS011;34607;48.520;-1.330;2023-01-05T19:42:30;4.57;;;1.63;;
48795;SDS011;34607;48.520;-1.330;2023-01-05T19:44:58;4.65;;;2.00;;
48795;SDS011;34607;48.520;-1.330;2023-01-05T19:47:28;4.43;;;1.73;;
48795;SDS011;34607;48.520;-1.330;2023-01-05T19:49:55;4.10;;;1.92;;
48795;SDS011;34607;48.520;-1.330;2023-01-05T19:52:22;4.07;;;1.95;;
48795;SDS011;34607;48.520;-1.330;2023-01-05T19:54:53;3.33;;;1.80;;
48795;SDS011;34607;48.520;-1.330;2023-01-05T19:57:21;3.25;;;1.80;;
48795;SDS011;34607;48.520;-1.330;2023-01-05T19:59:49;3.40;;;1.73;;
48795;SDS011;34607;48.520;-1.330;2023-01-05T20:02:17;3.65;;;1.70;;
48795;SDS011;34607;48.520;-1.330;2023-01-05T20:04:45;6.32;;;1.80;;
48795;SDS011;34607;48.520;-1.330;2023-01-05T20:07:12;4.70;;;1.80;;
48795;SDS011;34607;48.520;-1.330;2023-01-05T20:09:39;4.38;;;1.90;;
48795;SDS011;34607;48.520;-1.330;2023-01-05T20:12:06;5.18;;;2.40;;
48795;SDS011;34607;48.520;-1.330;2023-01-05T20:14:34;3.28;;;1.75;;
48795;SDS011;34607;48.520;-1.330;2023-01-05T20:17:01;3.67;;;2.20;;
48795;SDS011;34607;48.520;-1.330;2023-01-05T20:19:32;4.88;;;2.05;;
48795;SDS011;34607;48.520;-1.330;2023-01-05T20:22:01;6.00;;;2.65;;
48795;SDS011;34607;48.520;-1.330;2023-01-05T20:24:31;5.28;;;2.30;;
48795;SDS011;34607;48.520;-1.330;2023-01-05T20:27:01;4.22;;;2.05;;
48795;SDS011;34607;48.520;-1.330;2023-01-05T20:29:31;4.78;;;2.15;;
48795;SDS011;34607;48.520;-1.330;2023-01-05T20:31:59;4.88;;;2.42;;
48795;SDS011;34607;48.520;-1.330;2023-01-05T20:34:28;4.32;;;1.98;;
48795;SDS011;34607;48.520;-1.330;2023-01-05T20:37:00;6.03;;;2.03;;
48795;SDS011;34607;48.520;-1.330;2023-01-05T20:39:28;7.47;;;2.13;;
48795;SDS011;34607;48.520;-1.330;2023-01-05T20:41:56;4.32;;;2.20;;
48795;SDS011;34607;48.520;-1.330;2023-01-05T20:44:29;7.72;;;2.55;;
48795;SDS011;34607;48.520;-1.330;2023-01-05T20:46:57;4.25;;;2.50;;
48795;SDS011;34607;48.520;-1.330;2023-01-05T20:49:25;4.22;;;2.03;;
48795;SDS011;34607;48.520;-1.330;2023-01-05T20:51:52;3.88;;;2.00;;
48795;SDS011;34607;48.520;-1.330;2023-01-05T20:54:21;3.75;;;1.92;;
48795;SDS011;34607;48.520;-1.330;2023-01-05T20:56:49;4.85;;;2.10;;
48795;SDS011;34607;48.520;-1.330;2023-01-05T20:59:16;3.25;;;1.95;;
48795;SDS011;34607;48.520;-1.330;2023-01-05T21:01:47;3.00;;;2.17;;
48795;SDS011;34607;48.520;-1.330;2023-01-05T21:04:15;7.13;;;1.60;;
48795;SDS011;34607;48.520;-1.330;2023-01-05T21:06:42;3.25;;;2.08;;
48795;SDS011;34607;48.520;-1.330;2023-01-05T21:09:10;3.65;;;1.80;;
48795;SDS011;34607;48.520;-1.330;2023-01-05T21:11:39;5.38;;;2.03;;
48795;SDS011;34607;48.520;-1.330;2023-01-05T21:14:06;5.95;;;1.90;;
48795;SDS011;34607;48.520;-1.330;2023-01-05T21:16:35;9.57;;;2.10;;
48795;SDS011;34607;48.520;-1.330;2023-01-05T21:19:03;4.32;;;2.03;;
48795;SDS011;34607;48.520;-1.330;2023-01-05T21:21:31;2.13;;;1.92;;
48795;SDS011;34607;48.520;-1.330;2023-01-05T21:23:59;7.03;;;2.20;;
48795;SDS011;34607;48.520;-1.330;2023-01-05T21:26:26;4.03;;;2.03;;
48795;SDS011;34607;48.520;-1.330;2023-01-05T21:28:54;4.43;;;2.00;;
48795;SDS011;34607;48.520;-1.330;2023-01-05T21:31:22;2.80;;;1.65;;
48795;SDS011;34607;48.520;-1.330;2023-01-05T21:33:51;5.53;;;1.83;;
48795;SDS011;34607;48.520;-1.330;2023-01-05T21:36:20;3.95;;;2.30;;
48795;SDS011;34607;48.520;-1.330;2023-01-05T21:38:49;4.90;;;1.77;;
48795;SDS011;34607;48.520;-1.330;2023-01-05T21:41:16;3.90;;;1.52;;
48795;SDS011;34607;48.520;-1.330;2023-01-05T21:44:05;2.15;;;1.60;;
48795;SDS011;34607;48.520;-1.330;2023-01-05T21:46:34;2.78;;;1.83;;
48795;SDS011;34607;48.520;-1.330;2023-01-05T21:49:02;2.72;;;1.83;;
48795;SDS011;34607;48.520;-1.330;2023-01-05T21:51:30;4.97;;;1.75;;
48795;SDS011;34607;48.520;-1.330;2023-01-05T21:54:14;3.15;;;1.40;;
48795;SDS011;34607;48.520;-1.330;2023-01-05T21:59:27;1.65;;;1.08;;
48795;SDS011;34607;48.520;-1.330;2023-01-05T22:01:54;3.42;;;1.77;;
48795;SDS011;34607;48.520;-1.330;2023-01-05T22:04:21;3.50;;;1.70;;
48795;SDS011;34607;48.520;-1.330;2023-01-05T22:06:49;4.95;;;1.45;;
48795;SDS011;34607;48.520;-1.330;2023-01-05T22:09:16;3.88;;;1.73;;
48795;SDS011;34607;48.520;-1.330;2023-01-05T22:11:43;5.65;;;1.45;;
48795;SDS011;34607;48.520;-1.330;2023-01-05T22:14:10;2.85;;;1.25;;
48795;SDS011;34607;48.520;-1.330;2023-01-05T22:16:39;2.60;;;1.40;;
48795;SDS011;34607;48.520;-1.330;2023-01-05T22:19:07;3.15;;;1.55;;
48795;SDS011;34607;48.520;-1.330;2023-01-05T22:21:35;4.70;;;1.50;;
48795;SDS011;34607;48.520;-1.330;2023-01-05T22:24:02;4.22;;;1.30;;
48795;SDS011;34607;48.520;-1.330;2023-01-05T22:26:29;3.75;;;1.55;;
